IBE212 LEMI-BGGH
Flight info
| Callsign | IBE212 |
|---|---|
| Flight time | N/A |
| Altitude | 36000 |
| Route | RESTU N860 NARGO L150 SOSAV/N0467F380 L150 RBO N867 DGO/N0470F370 N725 NUBLO/N0469F380 N873 RONSI/N0472F370 M190 LASKU/N0469F380 DCT VES DCT BEGAS/M083F380 DCT 46N010W 54N020W 59N030W 62N040W DCT GH |
| Aircraft | A346/H-SDE2E3FGHIJ3J4J5M1RWXY/LB1D1 |
Departure
| Time | 2026-04-25 07:55 |
|---|---|
| Airport | Region of Murcia International Airport (LEMI) |
Arrival
| Time | N/A |
|---|---|
| Airport | Nuuk International Airport (BGGH) |
| Time | Latitude | Longitude | Altitude | Speed | Heading |
|---|---|---|---|---|---|
| 2026-04-25 07:51 | 37.79664 | -1.13610 | 660 ft | 19 kts | 225° |
| 2026-04-25 07:51 | 37.79566 | -1.13736 | 660 ft | 20 kts | 223° |
| 2026-04-25 07:52 | 37.79484 | -1.13750 | 660 ft | 0 kts | 144° |
| 2026-04-25 07:52 | 37.79479 | -1.13746 | 660 ft | 2 kts | 143° |
| 2026-04-25 07:53 | 37.79459 | -1.13725 | 660 ft | 5 kts | 139° |
| 2026-04-25 07:53 | 37.79430 | -1.13677 | 659 ft | 9 kts | 110° |
| 2026-04-25 07:53 | 37.79445 | -1.13593 | 658 ft | 12 kts | 53° |
| 2026-04-25 07:53 | 37.79455 | -1.13578 | 658 ft | 0 kts | 48° |
| 2026-04-25 07:54 | 37.79562 | -1.13438 | 660 ft | 54 kts | 45° |
| 2026-04-25 07:54 | 37.79981 | -1.12902 | 659 ft | 115 kts | 45° |
| 2026-04-25 07:54 | 37.80675 | -1.12011 | 659 ft | 166 kts | 45° |
| 2026-04-25 07:54 | 37.81565 | -1.10854 | 894 ft | 191 kts | 45° |
| 2026-04-25 07:55 | 37.82464 | -1.09608 | 1700 ft | 190 kts | 39° |
| 2026-04-25 07:55 | 37.83673 | -1.09061 | 2570 ft | 188 kts | 359° |
| 2026-04-25 07:55 | 37.84866 | -1.09772 | 3195 ft | 202 kts | 320° |
| 2026-04-25 07:55 | 37.85873 | -1.11106 | 3608 ft | 217 kts | 317° |
| 2026-04-25 07:56 | 37.86957 | -1.12530 | 4020 ft | 232 kts | 317° |
| 2026-04-25 07:56 | 37.88146 | -1.14041 | 4381 ft | 252 kts | 320° |
| 2026-04-25 07:56 | 37.89518 | -1.15546 | 4838 ft | 268 kts | 323° |
| 2026-04-25 07:56 | 37.91054 | -1.16954 | 5467 ft | 275 kts | 327° |
| 2026-04-25 07:57 | 37.92622 | -1.18294 | 6280 ft | 277 kts | 327° |
| 2026-04-25 07:57 | 37.94112 | -1.19876 | 6992 ft | 284 kts | 307° |
| 2026-04-25 07:57 | 37.94862 | -1.22197 | 7697 ft | 290 kts | 276° |
| 2026-04-25 07:57 | 37.94736 | -1.24745 | 8513 ft | 292 kts | 262° |
| 2026-04-25 07:58 | 37.94785 | -1.27331 | 9227 ft | 300 kts | 288° |
| 2026-04-25 07:58 | 37.95853 | -1.29581 | 9978 ft | 301 kts | 320° |
| 2026-04-25 07:58 | 37.97669 | -1.30821 | 10654 ft | 301 kts | 351° |
| 2026-04-25 07:58 | 37.99764 | -1.30754 | 11077 ft | 308 kts | 21° |
| 2026-04-25 07:59 | 38.01760 | -1.29641 | 11506 ft | 322 kts | 27° |
| 2026-04-25 07:59 | 38.03872 | -1.28465 | 11884 ft | 341 kts | 25° |
| 2026-04-25 07:59 | 38.06146 | -1.27344 | 12235 ft | 360 kts | 22° |
| 2026-04-25 07:59 | 38.08566 | -1.26253 | 12580 ft | 377 kts | 21° |
| 2026-04-25 08:00 | 38.11091 | -1.25177 | 13201 ft | 386 kts | 20° |
| 2026-04-25 08:00 | 38.13652 | -1.24120 | 14022 ft | 389 kts | 20° |
| 2026-04-25 08:00 | 38.16249 | -1.23065 | 14735 ft | 393 kts | 20° |
| 2026-04-25 08:00 | 38.18868 | -1.22008 | 15376 ft | 398 kts | 20° |
| 2026-04-25 08:01 | 38.21518 | -1.20942 | 16079 ft | 401 kts | 20° |
| 2026-04-25 08:01 | 38.24160 | -1.19882 | 16762 ft | 405 kts | 20° |
| 2026-04-25 08:01 | 38.26864 | -1.18796 | 17440 ft | 409 kts | 20° |
| 2026-04-25 08:01 | 38.29596 | -1.17699 | 18118 ft | 413 kts | 19° |
| 2026-04-25 08:02 | 38.32361 | -1.16590 | 18736 ft | 418 kts | 20° |
| 2026-04-25 08:02 | 38.35153 | -1.15470 | 19287 ft | 422 kts | 20° |
| 2026-04-25 08:02 | 38.37967 | -1.14340 | 19866 ft | 426 kts | 20° |
| 2026-04-25 08:02 | 38.40812 | -1.13198 | 20384 ft | 432 kts | 20° |
| 2026-04-25 08:03 | 38.43699 | -1.12034 | 20899 ft | 437 kts | 20° |
| 2026-04-25 08:03 | 38.46609 | -1.10861 | 21456 ft | 440 kts | 20° |
| 2026-04-25 08:03 | 38.49546 | -1.09677 | 22017 ft | 444 kts | 20° |
| 2026-04-25 08:03 | 38.52467 | -1.08498 | 22540 ft | 448 kts | 20° |
| 2026-04-25 08:04 | 38.55460 | -1.07290 | 23087 ft | 452 kts | 20° |
| 2026-04-25 08:04 | 38.58476 | -1.06071 | 23606 ft | 456 kts | 20° |
| 2026-04-25 08:04 | 38.61514 | -1.04842 | 24048 ft | 460 kts | 20° |
| 2026-04-25 08:04 | 38.64581 | -1.03601 | 24472 ft | 463 kts | 20° |
| 2026-04-25 08:05 | 38.67665 | -1.02351 | 24902 ft | 466 kts | 19° |
| 2026-04-25 08:05 | 38.70847 | -1.01447 | 25277 ft | 474 kts | 6° |
| 2026-04-25 08:05 | 38.74146 | -1.01775 | 25707 ft | 480 kts | 348° |
| 2026-04-25 08:05 | 38.77249 | -1.03356 | 26159 ft | 484 kts | 330° |
| 2026-04-25 08:06 | 38.79975 | -1.05920 | 26622 ft | 486 kts | 321° |
| 2026-04-25 08:06 | 38.82617 | -1.08667 | 27079 ft | 490 kts | 321° |
| 2026-04-25 08:06 | 38.85272 | -1.11441 | 27486 ft | 493 kts | 321° |
| 2026-04-25 08:06 | 38.87948 | -1.14225 | 27898 ft | 497 kts | 321° |
| 2026-04-25 08:07 | 38.90646 | -1.17019 | 28323 ft | 499 kts | 321° |
| 2026-04-25 08:07 | 38.93355 | -1.19816 | 28898 ft | 499 kts | 321° |
| 2026-04-25 08:07 | 38.96020 | -1.22564 | 29589 ft | 495 kts | 321° |
| 2026-04-25 08:07 | 38.98705 | -1.25333 | 30296 ft | 493 kts | 321° |
| 2026-04-25 08:08 | 39.01382 | -1.28093 | 30844 ft | 491 kts | 321° |
| 2026-04-25 08:08 | 39.04049 | -1.30844 | 31342 ft | 490 kts | 321° |
| 2026-04-25 08:08 | 39.06708 | -1.33589 | 31838 ft | 490 kts | 321° |
| 2026-04-25 08:08 | 39.09364 | -1.36335 | 32339 ft | 489 kts | 321° |
| 2026-04-25 08:09 | 39.12015 | -1.39076 | 32827 ft | 488 kts | 321° |
| 2026-04-25 08:09 | 39.14658 | -1.41812 | 33382 ft | 486 kts | 321° |
| 2026-04-25 08:09 | 39.17291 | -1.44541 | 33933 ft | 483 kts | 321° |
| 2026-04-25 08:09 | 39.19876 | -1.47223 | 34402 ft | 482 kts | 321° |
| 2026-04-25 08:10 | 39.22489 | -1.49936 | 34803 ft | 482 kts | 321° |
| 2026-04-25 08:10 | 39.25100 | -1.52650 | 35210 ft | 481 kts | 321° |
| 2026-04-25 08:10 | 39.27701 | -1.55357 | 35635 ft | 479 kts | 321° |
| 2026-04-25 08:10 | 39.30293 | -1.58056 | 36036 ft | 478 kts | 321° |
| 2026-04-25 08:11 | 39.32880 | -1.60754 | 36436 ft | 476 kts | 321° |
| 2026-04-25 08:11 | 39.35464 | -1.63449 | 36754 ft | 476 kts | 320° |
| 2026-04-25 08:11 | 39.38042 | -1.66143 | 37047 ft | 477 kts | 320° |
| 2026-04-25 08:11 | 39.40624 | -1.68847 | 37292 ft | 478 kts | 320° |
| 2026-04-25 08:12 | 39.43216 | -1.71563 | 37511 ft | 479 kts | 320° |
| 2026-04-25 08:12 | 39.45814 | -1.74287 | 37739 ft | 481 kts | 320° |
| 2026-04-25 08:12 | 39.48381 | -1.76980 | 37962 ft | 482 kts | 320° |
| 2026-04-25 08:12 | 39.50990 | -1.79720 | 38140 ft | 483 kts | 320° |
| 2026-04-25 08:13 | 39.56212 | -1.85212 | 38148 ft | 484 kts | 320° |
| 2026-04-25 08:14 | 39.64060 | -1.93481 | 38149 ft | 485 kts | 320° |
| 2026-04-25 08:14 | 39.69297 | -1.99017 | 38144 ft | 485 kts | 320° |
| 2026-04-25 08:15 | 39.74526 | -2.04553 | 38141 ft | 485 kts | 320° |
| 2026-04-25 08:15 | 39.79760 | -2.10104 | 38148 ft | 485 kts | 319° |
| 2026-04-25 08:16 | 39.84971 | -2.15639 | 38140 ft | 482 kts | 319° |
| 2026-04-25 08:16 | 39.90168 | -2.21178 | 38141 ft | 482 kts | 319° |
| 2026-04-25 08:17 | 39.95323 | -2.26682 | 38140 ft | 482 kts | 319° |
| 2026-04-25 08:17 | 40.00501 | -2.32223 | 38144 ft | 481 kts | 319° |
| 2026-04-25 08:18 | 40.05663 | -2.37752 | 38137 ft | 478 kts | 319° |
| 2026-04-25 08:18 | 40.10806 | -2.43274 | 38134 ft | 478 kts | 319° |
| 2026-04-25 08:19 | 40.15942 | -2.48801 | 38135 ft | 478 kts | 319° |
| 2026-04-25 08:19 | 40.21076 | -2.54337 | 38131 ft | 478 kts | 319° |
| 2026-04-25 08:20 | 40.26190 | -2.59865 | 38132 ft | 474 kts | 319° |
| 2026-04-25 08:20 | 40.31248 | -2.65338 | 38132 ft | 473 kts | 319° |
| 2026-04-25 08:21 | 40.36320 | -2.70846 | 38133 ft | 473 kts | 320° |
| 2026-04-25 08:21 | 40.41386 | -2.76349 | 38132 ft | 472 kts | 320° |
| 2026-04-25 08:22 | 40.46452 | -2.81862 | 38129 ft | 470 kts | 320° |
| 2026-04-25 08:22 | 40.51492 | -2.87360 | 38132 ft | 469 kts | 320° |
| 2026-04-25 08:23 | 40.56547 | -2.92891 | 38136 ft | 474 kts | 320° |
| 2026-04-25 08:23 | 40.61595 | -2.98424 | 38137 ft | 475 kts | 320° |
| 2026-04-25 08:24 | 40.66691 | -3.04017 | 38136 ft | 475 kts | 319° |
| 2026-04-25 08:24 | 40.71762 | -3.09594 | 38138 ft | 473 kts | 319° |
| 2026-04-25 08:25 | 40.76811 | -3.15164 | 38139 ft | 473 kts | 319° |
| 2026-04-25 08:25 | 40.81952 | -3.20622 | 38141 ft | 474 kts | 323° |
| 2026-04-25 08:26 | 40.87469 | -3.25394 | 38134 ft | 475 kts | 329° |
| 2026-04-25 08:26 | 40.93324 | -3.29353 | 38137 ft | 477 kts | 334° |
| 2026-04-25 08:27 | 40.99396 | -3.32936 | 38140 ft | 477 kts | 335° |
| 2026-04-25 08:27 | 41.05458 | -3.36490 | 38143 ft | 477 kts | 335° |
| 2026-04-25 08:28 | 41.11531 | -3.40061 | 38142 ft | 478 kts | 335° |
| 2026-04-25 08:28 | 41.17608 | -3.43660 | 38156 ft | 478 kts | 335° |
| 2026-04-25 08:29 | 41.23672 | -3.47261 | 38146 ft | 477 kts | 335° |
| 2026-04-25 08:29 | 41.29732 | -3.50859 | 38149 ft | 477 kts | 335° |
| 2026-04-25 08:30 | 41.35801 | -3.54473 | 38143 ft | 477 kts | 335° |
| 2026-04-25 08:30 | 41.41829 | -3.58069 | 38150 ft | 477 kts | 335° |
| 2026-04-25 08:31 | 41.47889 | -3.61694 | 38148 ft | 477 kts | 335° |
| 2026-04-25 08:31 | 41.53951 | -3.65326 | 38150 ft | 477 kts | 335° |
| 2026-04-25 08:32 | 41.60007 | -3.68963 | 38154 ft | 477 kts | 335° |
| 2026-04-25 08:32 | 41.66056 | -3.72604 | 38157 ft | 477 kts | 335° |
| 2026-04-25 08:33 | 41.72109 | -3.76254 | 38164 ft | 477 kts | 335° |
| 2026-04-25 08:33 | 41.78112 | -3.79883 | 38157 ft | 476 kts | 335° |
| 2026-04-25 08:34 | 41.84155 | -3.83540 | 38153 ft | 476 kts | 334° |
| 2026-04-25 08:34 | 41.90195 | -3.87203 | 38162 ft | 475 kts | 334° |
| 2026-04-25 08:35 | 41.95203 | -3.90247 | 38164 ft | 475 kts | 334° |
| 2026-04-25 08:35 | 42.01221 | -3.93912 | 38163 ft | 475 kts | 334° |
| 2026-04-25 08:36 | 42.07233 | -3.97589 | 38168 ft | 474 kts | 334° |
| 2026-04-25 08:36 | 42.13246 | -4.01263 | 38169 ft | 474 kts | 334° |
| 2026-04-25 08:37 | 42.19253 | -4.04947 | 38167 ft | 474 kts | 334° |
| 2026-04-25 08:37 | 42.25268 | -4.08639 | 38173 ft | 474 kts | 334° |
| 2026-04-25 08:38 | 42.31235 | -4.12317 | 38177 ft | 474 kts | 334° |
| 2026-04-25 08:38 | 42.37236 | -4.16016 | 38177 ft | 474 kts | 334° |
| 2026-04-25 08:39 | 42.43234 | -4.19731 | 38181 ft | 474 kts | 334° |
| 2026-04-25 08:39 | 42.49236 | -4.23442 | 38183 ft | 474 kts | 334° |
| 2026-04-25 08:40 | 42.55226 | -4.27163 | 38189 ft | 474 kts | 334° |
| 2026-04-25 08:40 | 42.61220 | -4.30898 | 38183 ft | 473 kts | 334° |
| 2026-04-25 08:41 | 42.67211 | -4.34637 | 38184 ft | 473 kts | 334° |
| 2026-04-25 08:41 | 42.73199 | -4.38378 | 38186 ft | 473 kts | 334° |
| 2026-04-25 08:42 | 42.79143 | -4.42100 | 38195 ft | 473 kts | 334° |
| 2026-04-25 08:42 | 42.85132 | -4.45857 | 38188 ft | 473 kts | 334° |
| 2026-04-25 08:43 | 42.91125 | -4.49626 | 38187 ft | 473 kts | 334° |
| 2026-04-25 08:43 | 42.97118 | -4.53397 | 38190 ft | 473 kts | 334° |
| 2026-04-25 08:44 | 43.03095 | -4.57168 | 38195 ft | 473 kts | 333° |
| 2026-04-25 08:44 | 43.09067 | -4.60947 | 38190 ft | 472 kts | 334° |
| 2026-04-25 08:45 | 43.15025 | -4.64715 | 38198 ft | 471 kts | 334° |
| 2026-04-25 08:45 | 43.20943 | -4.68473 | 38203 ft | 471 kts | 334° |
| 2026-04-25 08:46 | 43.26885 | -4.72258 | 38206 ft | 471 kts | 334° |
| 2026-04-25 08:46 | 43.32829 | -4.76054 | 38207 ft | 471 kts | 334° |
| 2026-04-25 08:47 | 43.38766 | -4.79854 | 38207 ft | 470 kts | 334° |
| 2026-04-25 08:47 | 43.44269 | -4.84643 | 38208 ft | 468 kts | 317° |
| 2026-04-25 08:48 | 43.48402 | -4.91516 | 38211 ft | 467 kts | 300° |
| 2026-04-25 08:48 | 43.50805 | -4.99795 | 38209 ft | 467 kts | 282° |
| 2026-04-25 08:49 | 43.51540 | -5.08694 | 38219 ft | 467 kts | 274° |
| 2026-04-25 08:49 | 43.51956 | -5.17635 | 38215 ft | 467 kts | 274° |
| 2026-04-25 08:50 | 43.52371 | -5.26520 | 38214 ft | 467 kts | 274° |
| 2026-04-25 08:50 | 43.52793 | -5.35463 | 38207 ft | 467 kts | 274° |
| 2026-04-25 08:51 | 43.53214 | -5.44426 | 38211 ft | 467 kts | 274° |
| 2026-04-25 08:51 | 43.53631 | -5.53387 | 38210 ft | 468 kts | 274° |
| 2026-04-25 08:52 | 43.54041 | -5.62356 | 38214 ft | 468 kts | 274° |
| 2026-04-25 08:52 | 43.54443 | -5.71324 | 38212 ft | 468 kts | 274° |
| 2026-04-25 08:53 | 43.54832 | -5.80219 | 38212 ft | 466 kts | 274° |
| 2026-04-25 08:53 | 43.55554 | -5.89097 | 38209 ft | 465 kts | 284° |
| 2026-04-25 08:54 | 43.58009 | -5.97316 | 38213 ft | 465 kts | 301° |
| 2026-04-25 08:54 | 43.62130 | -6.04169 | 38211 ft | 466 kts | 318° |
| 2026-04-25 08:55 | 43.67533 | -6.09091 | 38221 ft | 467 kts | 332° |
| 2026-04-25 08:55 | 43.73330 | -6.13144 | 38215 ft | 467 kts | 332° |
| 2026-04-25 08:56 | 43.79135 | -6.17180 | 38211 ft | 467 kts | 332° |
| 2026-04-25 08:56 | 43.84903 | -6.21221 | 38214 ft | 466 kts | 332° |
| 2026-04-25 08:57 | 43.90695 | -6.25296 | 38215 ft | 467 kts | 332° |
| 2026-04-25 08:57 | 43.96490 | -6.29387 | 38214 ft | 467 kts | 332° |
| 2026-04-25 08:58 | 44.02286 | -6.33489 | 38214 ft | 467 kts | 332° |
| 2026-04-25 08:58 | 44.08073 | -6.37594 | 38217 ft | 467 kts | 332° |
| 2026-04-25 08:59 | 44.13864 | -6.41711 | 38214 ft | 467 kts | 332° |
| 2026-04-25 08:59 | 44.19648 | -6.45833 | 38214 ft | 467 kts | 332° |
| 2026-04-25 09:00 | 44.25392 | -6.49935 | 38217 ft | 466 kts | 332° |
| 2026-04-25 09:00 | 44.31164 | -6.54065 | 38217 ft | 465 kts | 332° |
| 2026-04-25 09:01 | 44.36926 | -6.58198 | 38216 ft | 465 kts | 332° |
| 2026-04-25 09:01 | 44.42687 | -6.62340 | 38226 ft | 465 kts | 332° |
| 2026-04-25 09:02 | 44.48449 | -6.66489 | 38218 ft | 464 kts | 331° |
| 2026-04-25 09:02 | 44.54152 | -6.70608 | 38212 ft | 464 kts | 331° |
| 2026-04-25 09:03 | 44.59906 | -6.74773 | 38215 ft | 464 kts | 331° |
| 2026-04-25 09:03 | 44.65644 | -6.78935 | 38216 ft | 464 kts | 331° |
| 2026-04-25 09:04 | 44.71384 | -6.83107 | 38213 ft | 464 kts | 331° |
| 2026-04-25 09:04 | 44.77110 | -6.87281 | 38215 ft | 462 kts | 331° |
| 2026-04-25 09:05 | 44.82805 | -6.91455 | 38222 ft | 460 kts | 330° |
| 2026-04-25 09:05 | 44.88335 | -6.95999 | 38218 ft | 459 kts | 328° |
| 2026-04-25 09:06 | 44.93773 | -7.00611 | 38214 ft | 459 kts | 328° |
| 2026-04-25 09:06 | 44.99249 | -7.05264 | 38220 ft | 458 kts | 328° |
| 2026-04-25 09:07 | 45.04712 | -7.09912 | 38213 ft | 458 kts | 328° |
| 2026-04-25 09:07 | 45.10179 | -7.14571 | 38212 ft | 458 kts | 328° |
| 2026-04-25 09:08 | 45.15635 | -7.19230 | 38213 ft | 458 kts | 328° |
| 2026-04-25 09:08 | 45.21093 | -7.23899 | 38218 ft | 457 kts | 327° |
| 2026-04-25 09:09 | 45.26509 | -7.28545 | 38215 ft | 457 kts | 327° |
| 2026-04-25 09:09 | 45.31955 | -7.33227 | 38219 ft | 457 kts | 327° |
| 2026-04-25 09:10 | 45.37401 | -7.37919 | 38223 ft | 456 kts | 327° |
| 2026-04-25 09:10 | 45.42819 | -7.42600 | 38221 ft | 455 kts | 327° |
| 2026-04-25 09:11 | 45.50936 | -7.49628 | 38211 ft | 455 kts | 327° |
| 2026-04-25 09:11 | 45.56341 | -7.54319 | 38220 ft | 454 kts | 327° |
| 2026-04-25 09:12 | 45.61708 | -7.58992 | 38218 ft | 454 kts | 327° |
| 2026-04-25 09:12 | 45.67110 | -7.63705 | 38218 ft | 454 kts | 327° |
| 2026-04-25 09:13 | 45.72509 | -7.68426 | 38227 ft | 454 kts | 327° |
| 2026-04-25 09:13 | 45.77868 | -7.73121 | 38230 ft | 454 kts | 327° |
| 2026-04-25 09:14 | 45.83251 | -7.77851 | 38223 ft | 454 kts | 327° |
| 2026-04-25 09:14 | 45.88640 | -7.82598 | 38208 ft | 454 kts | 327° |
| 2026-04-25 09:15 | 45.94018 | -7.87340 | 38216 ft | 453 kts | 327° |
| 2026-04-25 09:15 | 45.99394 | -7.92097 | 38216 ft | 453 kts | 326° |
| 2026-04-25 09:16 | 46.04760 | -7.96853 | 38209 ft | 453 kts | 326° |
| 2026-04-25 09:16 | 46.10097 | -8.01595 | 38227 ft | 453 kts | 326° |
| 2026-04-25 09:17 | 46.18147 | -8.08770 | 38218 ft | 453 kts | 326° |
| 2026-04-25 09:18 | 46.23506 | -8.13562 | 38214 ft | 453 kts | 326° |
| 2026-04-25 09:18 | 46.28871 | -8.18368 | 38229 ft | 453 kts | 326° |
| 2026-04-25 09:19 | 46.34226 | -8.23175 | 38218 ft | 452 kts | 326° |
| 2026-04-25 09:19 | 46.39580 | -8.27996 | 38217 ft | 452 kts | 326° |
| 2026-04-25 09:20 | 46.44899 | -8.32796 | 38219 ft | 452 kts | 326° |
| 2026-04-25 09:20 | 46.50252 | -8.37637 | 38219 ft | 452 kts | 326° |
| 2026-04-25 09:21 | 46.55589 | -8.42474 | 38219 ft | 452 kts | 326° |
| 2026-04-25 09:21 | 46.60938 | -8.47334 | 38219 ft | 453 kts | 326° |
| 2026-04-25 09:22 | 46.66249 | -8.52169 | 38226 ft | 453 kts | 325° |
| 2026-04-25 09:22 | 46.71594 | -8.57047 | 38218 ft | 453 kts | 325° |
| 2026-04-25 09:23 | 46.76932 | -8.61933 | 38216 ft | 453 kts | 325° |
| 2026-04-25 09:23 | 46.82271 | -8.66830 | 38216 ft | 453 kts | 325° |
| 2026-04-25 09:24 | 46.87611 | -8.71737 | 38224 ft | 453 kts | 325° |
| 2026-04-25 09:24 | 46.92953 | -8.76661 | 38219 ft | 453 kts | 325° |
| 2026-04-25 09:25 | 46.98252 | -8.81557 | 38220 ft | 453 kts | 325° |
| 2026-04-25 09:25 | 47.03584 | -8.86495 | 38220 ft | 453 kts | 325° |
| 2026-04-25 09:26 | 47.08918 | -8.91442 | 38218 ft | 453 kts | 324° |
| 2026-04-25 09:26 | 47.13389 | -8.95603 | 38219 ft | 453 kts | 324° |
| 2026-04-25 09:27 | 47.18691 | -9.00547 | 38214 ft | 453 kts | 324° |
| 2026-04-25 09:27 | 47.24024 | -9.05532 | 38228 ft | 453 kts | 324° |
| 2026-04-25 09:28 | 47.29354 | -9.10523 | 38216 ft | 454 kts | 324° |
| 2026-04-25 09:28 | 47.34690 | -9.15535 | 38220 ft | 454 kts | 324° |
| 2026-04-25 09:29 | 47.40025 | -9.20557 | 38214 ft | 455 kts | 324° |
| 2026-04-25 09:29 | 47.45366 | -9.25597 | 38219 ft | 456 kts | 324° |
| 2026-04-25 09:30 | 47.50710 | -9.30653 | 38217 ft | 456 kts | 324° |
| 2026-04-25 09:30 | 47.56020 | -9.35689 | 38216 ft | 456 kts | 324° |
| 2026-04-25 09:31 | 47.61365 | -9.40770 | 38216 ft | 456 kts | 324° |
| 2026-04-25 09:31 | 47.66699 | -9.45851 | 38221 ft | 455 kts | 324° |
| 2026-04-25 09:32 | 47.72034 | -9.50949 | 38217 ft | 455 kts | 323° |
| 2026-04-25 09:32 | 47.77372 | -9.56061 | 38211 ft | 455 kts | 323° |
| 2026-04-25 09:33 | 47.82700 | -9.61177 | 38229 ft | 455 kts | 323° |
| 2026-04-25 09:33 | 47.87992 | -9.66267 | 38202 ft | 456 kts | 323° |
| 2026-04-25 09:34 | 47.93319 | -9.71409 | 38219 ft | 456 kts | 323° |
| 2026-04-25 09:34 | 47.98643 | -9.76559 | 38215 ft | 456 kts | 323° |
| 2026-04-25 09:35 | 48.03971 | -9.81724 | 38208 ft | 456 kts | 323° |
| 2026-04-25 09:35 | 48.09313 | -9.86915 | 38208 ft | 458 kts | 323° |
| 2026-04-25 09:36 | 48.14653 | -9.92121 | 38209 ft | 458 kts | 323° |
| 2026-04-25 09:36 | 48.19969 | -9.97316 | 38208 ft | 458 kts | 323° |
| 2026-04-25 09:37 | 48.25315 | -10.02551 | 38210 ft | 458 kts | 323° |
| 2026-04-25 09:37 | 48.30661 | -10.07801 | 38206 ft | 459 kts | 323° |
| 2026-04-25 09:38 | 48.36007 | -10.13065 | 38205 ft | 459 kts | 323° |
| 2026-04-25 09:38 | 48.41351 | -10.18339 | 38209 ft | 459 kts | 323° |
| 2026-04-25 09:39 | 48.46688 | -10.23620 | 38206 ft | 459 kts | 322° |
| 2026-04-25 09:39 | 48.51983 | -10.28873 | 38206 ft | 459 kts | 322° |
| 2026-04-25 09:40 | 48.59983 | -10.36835 | 38204 ft | 459 kts | 322° |
| 2026-04-25 09:40 | 48.65319 | -10.42163 | 38216 ft | 459 kts | 322° |
| 2026-04-25 09:41 | 48.70655 | -10.47507 | 38203 ft | 460 kts | 322° |
| 2026-04-25 09:41 | 48.76010 | -10.52838 | 38205 ft | 460 kts | 323° |
| 2026-04-25 09:42 | 48.81382 | -10.58130 | 38204 ft | 461 kts | 323° |
| 2026-04-25 09:42 | 48.86761 | -10.63445 | 38205 ft | 461 kts | 322° |
| 2026-04-25 09:43 | 48.92144 | -10.68784 | 38201 ft | 461 kts | 322° |
| 2026-04-25 09:43 | 48.97485 | -10.74096 | 38200 ft | 461 kts | 322° |
| 2026-04-25 09:44 | 49.02864 | -10.79461 | 38207 ft | 461 kts | 322° |
| 2026-04-25 09:44 | 49.08247 | -10.84845 | 38196 ft | 462 kts | 322° |
| 2026-04-25 09:45 | 49.13626 | -10.90239 | 38196 ft | 462 kts | 322° |
| 2026-04-25 09:45 | 49.18971 | -10.95612 | 38195 ft | 462 kts | 322° |
| 2026-04-25 09:46 | 49.24352 | -11.01036 | 38204 ft | 463 kts | 322° |
| 2026-04-25 09:46 | 49.29736 | -11.06478 | 38193 ft | 464 kts | 322° |
| 2026-04-25 09:47 | 49.35125 | -11.11939 | 38191 ft | 464 kts | 322° |
| 2026-04-25 09:47 | 49.40510 | -11.17410 | 38190 ft | 464 kts | 322° |
| 2026-04-25 09:48 | 49.45894 | -11.22896 | 38200 ft | 465 kts | 322° |
| 2026-04-25 09:48 | 49.51300 | -11.28418 | 38196 ft | 467 kts | 322° |
| 2026-04-25 09:49 | 49.56682 | -11.33931 | 38194 ft | 467 kts | 322° |
| 2026-04-25 09:49 | 49.62094 | -11.39489 | 38189 ft | 467 kts | 322° |
| 2026-04-25 09:50 | 49.67506 | -11.45065 | 38192 ft | 468 kts | 322° |
| 2026-04-25 09:50 | 49.72929 | -11.50665 | 38190 ft | 469 kts | 322° |
| 2026-04-25 09:51 | 49.78361 | -11.56289 | 38183 ft | 469 kts | 322° |
| 2026-04-25 09:51 | 49.83744 | -11.61878 | 38201 ft | 469 kts | 322° |
| 2026-04-25 09:52 | 49.89169 | -11.67529 | 38175 ft | 470 kts | 322° |
| 2026-04-25 09:52 | 49.94602 | -11.73200 | 38174 ft | 470 kts | 322° |
| 2026-04-25 09:53 | 50.00022 | -11.78874 | 38194 ft | 470 kts | 322° |
| 2026-04-25 09:53 | 50.05445 | -11.84567 | 38198 ft | 470 kts | 322° |
| 2026-04-25 09:54 | 50.10836 | -11.90246 | 38183 ft | 472 kts | 322° |
| 2026-04-25 09:54 | 50.16282 | -11.95993 | 38182 ft | 472 kts | 322° |
| 2026-04-25 09:55 | 50.21716 | -12.01745 | 38188 ft | 472 kts | 322° |
| 2026-04-25 09:55 | 50.27156 | -12.07519 | 38194 ft | 472 kts | 322° |
| 2026-04-25 09:56 | 50.32603 | -12.13321 | 38181 ft | 474 kts | 322° |
| 2026-04-25 09:56 | 50.38055 | -12.19140 | 38177 ft | 474 kts | 322° |
| 2026-04-25 09:57 | 50.43501 | -12.24971 | 38174 ft | 474 kts | 322° |
| 2026-04-25 09:57 | 50.48914 | -12.30782 | 38174 ft | 474 kts | 321° |
| 2026-04-25 09:58 | 50.54360 | -12.36645 | 38172 ft | 474 kts | 321° |
| 2026-04-25 09:58 | 50.59797 | -12.42517 | 38173 ft | 474 kts | 321° |
| 2026-04-25 09:59 | 50.65239 | -12.48410 | 38173 ft | 473 kts | 321° |
| 2026-04-25 09:59 | 50.70675 | -12.54316 | 38169 ft | 475 kts | 321° |
| 2026-04-25 10:00 | 50.76121 | -12.60245 | 38173 ft | 475 kts | 321° |
| 2026-04-25 10:00 | 50.81565 | -12.66191 | 38171 ft | 475 kts | 321° |
| 2026-04-25 10:01 | 50.87007 | -12.72153 | 38163 ft | 475 kts | 321° |
| 2026-04-25 10:01 | 50.92415 | -12.78097 | 38168 ft | 477 kts | 321° |
| 2026-04-25 10:02 | 50.97872 | -12.84106 | 38178 ft | 477 kts | 321° |
| 2026-04-25 10:02 | 51.03316 | -12.90119 | 38168 ft | 477 kts | 321° |
| 2026-04-25 10:03 | 51.08759 | -12.96152 | 38167 ft | 476 kts | 321° |
| 2026-04-25 10:03 | 51.14213 | -13.02217 | 38154 ft | 478 kts | 321° |
| 2026-04-25 10:04 | 51.19664 | -13.08292 | 38160 ft | 478 kts | 321° |
| 2026-04-25 10:04 | 51.25074 | -13.14341 | 38166 ft | 478 kts | 321° |
| 2026-04-25 10:05 | 51.30521 | -13.20449 | 38175 ft | 478 kts | 321° |
| 2026-04-25 10:05 | 51.35972 | -13.26582 | 38155 ft | 479 kts | 321° |
| 2026-04-25 10:06 | 51.41438 | -13.32745 | 38157 ft | 479 kts | 321° |
| 2026-04-25 10:06 | 51.46897 | -13.38921 | 38148 ft | 479 kts | 321° |
| 2026-04-25 10:07 | 51.52313 | -13.45067 | 38157 ft | 480 kts | 321° |
| 2026-04-25 10:07 | 51.57777 | -13.51288 | 38147 ft | 480 kts | 321° |
| 2026-04-25 10:08 | 51.63234 | -13.57516 | 38146 ft | 480 kts | 321° |
| 2026-04-25 10:08 | 51.68690 | -13.63763 | 38146 ft | 480 kts | 321° |
| 2026-04-25 10:09 | 51.74143 | -13.70025 | 38165 ft | 481 kts | 321° |
| 2026-04-25 10:09 | 51.79601 | -13.76314 | 38143 ft | 482 kts | 321° |
| 2026-04-25 10:10 | 51.85031 | -13.82589 | 38144 ft | 482 kts | 321° |
| 2026-04-25 10:10 | 51.90493 | -13.88931 | 38133 ft | 482 kts | 319° |
| 2026-04-25 10:11 | 51.95194 | -13.96500 | 38147 ft | 474 kts | 303° |
| 2026-04-25 10:11 | 51.98383 | -14.05735 | 38133 ft | 467 kts | 288° |
| 2026-04-25 10:12 | 51.99917 | -14.15898 | 38132 ft | 461 kts | 273° |
| 2026-04-25 10:13 | 52.00097 | -14.31452 | 38131 ft | 459 kts | 268° |
| 2026-04-25 10:13 | 52.00096 | -14.41832 | 38133 ft | 459 kts | 268° |
| 2026-04-25 10:14 | 52.00097 | -14.50463 | 38127 ft | 459 kts | 268° |
| 2026-04-25 10:14 | 52.00093 | -14.62538 | 38127 ft | 459 kts | 267° |
| 2026-04-25 10:15 | 52.00081 | -14.72908 | 38124 ft | 459 kts | 267° |
| 2026-04-25 10:15 | 52.00080 | -14.81602 | 38120 ft | 460 kts | 270° |
| 2026-04-25 10:16 | 52.01186 | -14.91810 | 38117 ft | 466 kts | 285° |
| 2026-04-25 10:16 | 52.04038 | -15.01348 | 38118 ft | 474 kts | 301° |
| 2026-04-25 10:17 | 52.08495 | -15.09372 | 38120 ft | 484 kts | 317° |
| 2026-04-25 10:17 | 52.14001 | -15.15788 | 38123 ft | 487 kts | 322° |
| 2026-04-25 10:18 | 52.19616 | -15.21999 | 38112 ft | 487 kts | 322° |
| 2026-04-25 10:18 | 52.25172 | -15.28190 | 38114 ft | 487 kts | 322° |
| 2026-04-25 10:19 | 52.30761 | -15.34463 | 38121 ft | 487 kts | 322° |
| 2026-04-25 10:19 | 52.36344 | -15.40760 | 38111 ft | 487 kts | 322° |
| 2026-04-25 10:20 | 52.41964 | -15.47122 | 38110 ft | 487 kts | 322° |
| 2026-04-25 10:20 | 52.47539 | -15.53455 | 38102 ft | 487 kts | 321° |
| 2026-04-25 10:21 | 52.53119 | -15.59812 | 38101 ft | 487 kts | 321° |
| 2026-04-25 10:21 | 52.58689 | -15.66179 | 38103 ft | 487 kts | 321° |
| 2026-04-25 10:22 | 52.64251 | -15.72558 | 38106 ft | 487 kts | 321° |
| 2026-04-25 10:22 | 52.69821 | -15.78966 | 38146 ft | 488 kts | 321° |
| 2026-04-25 10:23 | 52.75349 | -15.85347 | 38099 ft | 489 kts | 321° |
| 2026-04-25 10:23 | 52.80928 | -15.91805 | 38095 ft | 489 kts | 321° |
| 2026-04-25 10:24 | 52.86497 | -15.98272 | 38095 ft | 489 kts | 321° |
| 2026-04-25 10:24 | 52.92060 | -16.04754 | 38108 ft | 489 kts | 321° |
| 2026-04-25 10:25 | 52.97633 | -16.11269 | 38091 ft | 490 kts | 321° |
| 2026-04-25 10:25 | 53.03215 | -16.17813 | 38092 ft | 490 kts | 321° |
| 2026-04-25 10:26 | 53.08790 | -16.24371 | 38090 ft | 490 kts | 321° |
| 2026-04-25 10:26 | 53.14369 | -16.30955 | 38096 ft | 491 kts | 321° |
| 2026-04-25 10:27 | 53.19910 | -16.37517 | 38083 ft | 492 kts | 321° |
| 2026-04-25 10:27 | 53.25493 | -16.44148 | 38077 ft | 492 kts | 321° |
| 2026-04-25 10:28 | 53.31071 | -16.50796 | 38074 ft | 492 kts | 321° |
| 2026-04-25 10:28 | 53.36643 | -16.57460 | 38082 ft | 492 kts | 321° |
| 2026-04-25 10:29 | 53.42224 | -16.64156 | 38074 ft | 493 kts | 321° |
| 2026-04-25 10:29 | 53.47800 | -16.70866 | 38074 ft | 493 kts | 321° |
| 2026-04-25 10:30 | 53.53376 | -16.77598 | 38075 ft | 493 kts | 321° |
| 2026-04-25 10:30 | 53.58942 | -16.84346 | 38084 ft | 494 kts | 321° |
| 2026-04-25 10:31 | 53.64482 | -16.91080 | 38077 ft | 494 kts | 321° |
| 2026-04-25 10:31 | 53.70058 | -16.97879 | 38069 ft | 494 kts | 321° |
| 2026-04-25 10:32 | 53.75625 | -17.04689 | 38062 ft | 494 kts | 321° |
| 2026-04-25 10:32 | 53.81192 | -17.11530 | 38067 ft | 495 kts | 321° |
| 2026-04-25 10:33 | 53.86776 | -17.18410 | 38073 ft | 496 kts | 321° |
| 2026-04-25 10:33 | 53.92365 | -17.25314 | 38047 ft | 496 kts | 321° |
| 2026-04-25 10:34 | 53.97952 | -17.32242 | 38044 ft | 496 kts | 321° |
| 2026-04-25 10:34 | 54.03529 | -17.39187 | 38056 ft | 498 kts | 321° |
| 2026-04-25 10:35 | 54.09087 | -17.46128 | 38053 ft | 498 kts | 321° |
| 2026-04-25 10:35 | 54.14688 | -17.53142 | 38053 ft | 498 kts | 321° |
| 2026-04-25 10:36 | 54.20280 | -17.60172 | 38048 ft | 498 kts | 321° |
| 2026-04-25 10:36 | 54.25864 | -17.67222 | 38051 ft | 500 kts | 321° |
| 2026-04-25 10:37 | 54.31472 | -17.74320 | 38044 ft | 500 kts | 321° |
| 2026-04-25 10:37 | 54.37064 | -17.81422 | 38044 ft | 500 kts | 321° |
| 2026-04-25 10:38 | 54.42617 | -17.88501 | 38047 ft | 500 kts | 321° |
| 2026-04-25 10:38 | 54.48210 | -17.95661 | 38060 ft | 502 kts | 321° |
| 2026-04-25 10:39 | 54.53818 | -18.02860 | 38041 ft | 502 kts | 321° |
| 2026-04-25 10:39 | 54.59424 | -18.10079 | 38040 ft | 502 kts | 321° |
| 2026-04-25 10:40 | 54.65021 | -18.17313 | 38037 ft | 502 kts | 321° |
| 2026-04-25 10:40 | 54.70621 | -18.24577 | 38029 ft | 502 kts | 321° |
| 2026-04-25 10:41 | 54.76214 | -18.31859 | 38031 ft | 502 kts | 321° |
| 2026-04-25 10:41 | 54.81757 | -18.39102 | 38031 ft | 502 kts | 321° |
| 2026-04-25 10:42 | 54.87335 | -18.46416 | 38032 ft | 502 kts | 321° |
| 2026-04-25 10:42 | 54.92917 | -18.53764 | 38027 ft | 503 kts | 321° |
| 2026-04-25 10:43 | 54.98500 | -18.61136 | 38031 ft | 503 kts | 321° |
| 2026-04-25 10:43 | 55.04069 | -18.68516 | 38022 ft | 503 kts | 321° |
| 2026-04-25 10:44 | 55.09645 | -18.75933 | 38021 ft | 503 kts | 321° |
| 2026-04-25 10:44 | 55.15209 | -18.83364 | 38020 ft | 503 kts | 321° |